sensor_id;sensor_type;location;lat;lon;timestamp;pressure;altitude;pressure_sealevel;temperature
73685;BMP280;61985;51.070;14.064;2023-09-19T00:02:17;97971.13;;;16.42
73685;BMP280;61985;51.070;14.064;2023-09-19T00:04:43;97971.09;;;16.37
73685;BMP280;61985;51.070;14.064;2023-09-19T00:07:08;97966.38;;;16.37
73685;BMP280;61985;51.070;14.064;2023-09-19T00:09:37;97974.28;;;16.35
73685;BMP280;61985;51.070;14.064;2023-09-19T00:12:06;97964.19;;;16.41
73685;BMP280;61985;51.070;14.064;2023-09-19T00:14:32;97954.03;;;16.36
73685;BMP280;61985;51.070;14.064;2023-09-19T00:17:01;97961.84;;;16.23
73685;BMP280;61985;51.070;14.064;2023-09-19T00:19:32;97963.03;;;16.22
73685;BMP280;61985;51.070;14.064;2023-09-19T00:21:58;97964.06;;;16.24
73685;BMP280;61985;51.070;14.064;2023-09-19T00:24:23;97968.75;;;16.24
73685;BMP280;61985;51.070;14.064;2023-09-19T00:26:49;97968.47;;;16.22
73685;BMP280;61985;51.070;14.064;2023-09-19T00:29:14;97965.34;;;16.29
73685;BMP280;61985;51.070;14.064;2023-09-19T00:31:44;97965.75;;;16.22
73685;BMP280;61985;51.070;14.064;2023-09-19T00:34:10;97962.03;;;16.19
73685;BMP280;61985;51.070;14.064;2023-09-19T00:36:39;97959.25;;;16.14
73685;BMP280;61985;51.070;14.064;2023-09-19T00:39:05;97956.81;;;16.16
73685;BMP280;61985;51.070;14.064;2023-09-19T00:41:34;97957.25;;;16.08
73685;BMP280;61985;51.070;14.064;2023-09-19T00:44:03;97951.69;;;15.97
73685;BMP280;61985;51.070;14.064;2023-09-19T00:46:30;97952.19;;;15.96
73685;BMP280;61985;51.070;14.064;2023-09-19T00:48:57;97944.41;;;15.83
73685;BMP280;61985;51.070;14.064;2023-09-19T00:51:23;97943.19;;;15.84
73685;BMP280;61985;51.070;14.064;2023-09-19T00:53:51;97945.34;;;15.80
73685;BMP280;61985;51.070;14.064;2023-09-19T00:56:18;97944.47;;;15.88
73685;BMP280;61985;51.070;14.064;2023-09-19T00:58:45;97946.41;;;15.88
73685;BMP280;61985;51.070;14.064;2023-09-19T01:01:12;97946.16;;;15.86
73685;BMP280;61985;51.070;14.064;2023-09-19T01:03:40;97943.72;;;15.88
73685;BMP280;61985;51.070;14.064;2023-09-19T01:06:06;97944.13;;;15.81
73685;BMP280;61985;51.070;14.064;2023-09-19T01:08:33;97938.63;;;15.75
73685;BMP280;61985;51.070;14.064;2023-09-19T01:11:13;97937.19;;;15.80
73685;BMP280;61985;51.070;14.064;2023-09-19T01:21:57;97945.91;;;15.84
73685;BMP280;61985;51.070;14.064;2023-09-19T01:25:05;97946.59;;;15.79
73685;BMP280;61985;51.070;14.064;2023-09-19T01:30:17;97934.94;;;15.73
73685;BMP280;61985;51.070;14.064;2023-09-19T01:32:49;97944.22;;;15.66
73685;BMP280;61985;51.070;14.064;2023-09-19T01:35:17;97958.09;;;15.68
73685;BMP280;61985;51.070;14.064;2023-09-19T01:37:43;97950.72;;;15.74
73685;BMP280;61985;51.070;14.064;2023-09-19T01:40:10;97951.69;;;15.71
73685;BMP280;61985;51.070;14.064;2023-09-19T01:50:58;97950.94;;;15.70
73685;BMP280;61985;51.070;14.064;2023-09-19T01:53:26;97955.56;;;15.64
73685;BMP280;61985;51.070;14.064;2023-09-19T01:55:54;97950.66;;;15.68
73685;BMP280;61985;51.070;14.064;2023-09-19T01:58:48;97968.00;;;15.71
73685;BMP280;61985;51.070;14.064;2023-09-19T02:01:19;97962.88;;;15.79
73685;BMP280;61985;51.070;14.064;2023-09-19T02:03:46;97963.69;;;15.85
73685;BMP280;61985;51.070;14.064;2023-09-19T02:06:15;97956.72;;;15.78
73685;BMP280;61985;51.070;14.064;2023-09-19T02:08:42;97960.66;;;15.77
73685;BMP280;61985;51.070;14.064;2023-09-19T02:11:08;97966.03;;;15.72
73685;BMP280;61985;51.070;14.064;2023-09-19T02:13:34;97973.47;;;15.77
73685;BMP280;61985;51.070;14.064;2023-09-19T02:15:59;97975.91;;;15.75
73685;BMP280;61985;51.070;14.064;2023-09-19T02:18:25;97968.03;;;15.77
73685;BMP280;61985;51.070;14.064;2023-09-19T02:20:53;97971.19;;;15.69
73685;BMP280;61985;51.070;14.064;2023-09-19T02:23:19;97967.78;;;15.75
73685;BMP280;61985;51.070;14.064;2023-09-19T02:25:52;97981.13;;;15.73
73685;BMP280;61985;51.070;14.064;2023-09-19T02:28:17;97986.53;;;15.73
73685;BMP280;61985;51.070;14.064;2023-09-19T02:30:43;97993.81;;;15.61
73685;BMP280;61985;51.070;14.064;2023-09-19T02:33:08;97983.69;;;15.61
73685;BMP280;61985;51.070;14.064;2023-09-19T02:35:33;97982.88;;;15.55
73685;BMP280;61985;51.070;14.064;2023-09-19T02:38:01;97991.13;;;15.46
73685;BMP280;61985;51.070;14.064;2023-09-19T02:40:28;97983.56;;;15.50
73685;BMP280;61985;51.070;14.064;2023-09-19T02:42:55;97994.13;;;15.48
73685;BMP280;61985;51.070;14.064;2023-09-19T02:45:20;97986.50;;;15.52
73685;BMP280;61985;51.070;14.064;2023-09-19T02:47:47;97992.25;;;15.54
73685;BMP280;61985;51.070;14.064;2023-09-19T02:50:13;97984.38;;;15.56
73685;BMP280;61985;51.070;14.064;2023-09-19T02:52:42;97987.47;;;15.49
73685;BMP280;61985;51.070;14.064;2023-09-19T02:55:09;97987.56;;;15.55
73685;BMP280;61985;51.070;14.064;2023-09-19T02:57:35;97984.84;;;15.55
73685;BMP280;61985;51.070;14.064;2023-09-19T03:00:08;97988.56;;;15.57
73685;BMP280;61985;51.070;14.064;2023-09-19T03:02:37;97995.22;;;15.56
73685;BMP280;61985;51.070;14.064;2023-09-19T03:05:05;97998.19;;;15.58
73685;BMP280;61985;51.070;14.064;2023-09-19T03:07:31;98008.53;;;15.54
73685;BMP280;61985;51.070;14.064;2023-09-19T03:09:56;97994.97;;;15.54
73685;BMP280;61985;51.070;14.064;2023-09-19T03:12:21;98003.09;;;15.54
73685;BMP280;61985;51.070;14.064;2023-09-19T03:14:47;98008.19;;;15.46
73685;BMP280;61985;51.070;14.064;2023-09-19T03:17:13;98011.72;;;15.53
73685;BMP280;61985;51.070;14.064;2023-09-19T03:19:40;98009.28;;;15.55
73685;BMP280;61985;51.070;14.064;2023-09-19T03:22:05;98011.56;;;15.41
73685;BMP280;61985;51.070;14.064;2023-09-19T03:24:31;98011.41;;;15.45
73685;BMP280;61985;51.070;14.064;2023-09-19T03:26:58;98018.75;;;15.44
73685;BMP280;61985;51.070;14.064;2023-09-19T03:29:24;98009.53;;;15.36
73685;BMP280;61985;51.070;14.064;2023-09-19T03:31:50;98013.53;;;15.20
73685;BMP280;61985;51.070;14.064;2023-09-19T03:34:16;98024.25;;;15.29
73685;BMP280;61985;51.070;14.064;2023-09-19T03:36:42;98015.63;;;15.31
73685;BMP280;61985;51.070;14.064;2023-09-19T03:39:07;98021.53;;;15.29
73685;BMP280;61985;51.070;14.064;2023-09-19T03:41:33;98026.28;;;15.35
73685;BMP280;61985;51.070;14.064;2023-09-19T03:43:58;98023.97;;;15.27
73685;BMP280;61985;51.070;14.064;2023-09-19T03:46:24;98026.19;;;15.29
73685;BMP280;61985;51.070;14.064;2023-09-19T03:48:50;98014.59;;;15.28
73685;BMP280;61985;51.070;14.064;2023-09-19T03:51:15;98016.25;;;15.20
73685;BMP280;61985;51.070;14.064;2023-09-19T03:53:41;98014.44;;;15.17
73685;BMP280;61985;51.070;14.064;2023-09-19T03:56:06;98020.97;;;15.25
73685;BMP280;61985;51.070;14.064;2023-09-19T03:58:33;98020.59;;;15.33
73685;BMP280;61985;51.070;14.064;2023-09-19T04:01:03;98020.94;;;15.40
73685;BMP280;61985;51.070;14.064;2023-09-19T04:03:28;98027.69;;;15.45
73685;BMP280;61985;51.070;14.064;2023-09-19T04:06:00;98031.94;;;15.52
73685;BMP280;61985;51.070;14.064;2023-09-19T04:08:26;98042.53;;;15.49
73685;BMP280;61985;51.070;14.064;2023-09-19T04:10:52;98034.56;;;15.46
73685;BMP280;61985;51.070;14.064;2023-09-19T04:13:18;98027.25;;;15.52
73685;BMP280;61985;51.070;14.064;2023-09-19T04:15:43;98027.69;;;15.45
73685;BMP280;61985;51.070;14.064;2023-09-19T04:18:11;98035.06;;;15.44
73685;BMP280;61985;51.070;14.064;2023-09-19T04:20:37;98034.31;;;15.44
73685;BMP280;61985;51.070;14.064;2023-09-19T04:23:02;98035.34;;;15.46
73685;BMP280;61985;51.070;14.064;2023-09-19T04:25:29;98034.56;;;15.46
73685;BMP280;61985;51.070;14.064;2023-09-19T04:27:55;98028.97;;;15.49
73685;BMP280;61985;51.070;14.064;2023-09-19T04:30:20;98028.41;;;15.45
73685;BMP280;61985;51.070;14.064;2023-09-19T04:32:46;98035.81;;;15.45
73685;BMP280;61985;51.070;14.064;2023-09-19T04:35:15;98035.88;;;15.51
73685;BMP280;61985;51.070;14.064;2023-09-19T04:37:41;98038.09;;;15.52
73685;BMP280;61985;51.070;14.064;2023-09-19T04:40:08;98040.81;;;15.52
73685;BMP280;61985;51.070;14.064;2023-09-19T04:42:42;98041.13;;;15.54
73685;BMP280;61985;51.070;14.064;2023-09-19T04:45:08;98036.22;;;15.58
73685;BMP280;61985;51.070;14.064;2023-09-19T04:47:37;98048.84;;;15.61
73685;BMP280;61985;51.070;14.064;2023-09-19T04:50:08;98059.22;;;15.63
73685;BMP280;61985;51.070;14.064;2023-09-19T04:52:37;98058.00;;;15.64
73685;BMP280;61985;51.070;14.064;2023-09-19T04:55:03;98053.31;;;15.64
73685;BMP280;61985;51.070;14.064;2023-09-19T04:57:28;98054.09;;;15.65
73685;BMP280;61985;51.070;14.064;2023-09-19T04:59:54;98057.28;;;15.63
73685;BMP280;61985;51.070;14.064;2023-09-19T05:02:19;98057.75;;;15.62
73685;BMP280;61985;51.070;14.064;2023-09-19T05:04:44;98062.25;;;15.65
73685;BMP280;61985;51.070;14.064;2023-09-19T05:07:10;98059.09;;;15.72
73685;BMP280;61985;51.070;14.064;2023-09-19T05:09:36;98069.59;;;15.79
73685;BMP280;61985;51.070;14.064;2023-09-19T05:12:02;98066.88;;;15.79
73685;BMP280;61985;51.070;14.064;2023-09-19T05:14:28;98076.00;;;15.82
73685;BMP280;61985;51.070;14.064;2023-09-19T05:16:53;98075.53;;;15.83
73685;BMP280;61985;51.070;14.064;2023-09-19T05:19:19;98070.38;;;15.85
73685;BMP280;61985;51.070;14.064;2023-09-19T05:21:44;98069.63;;;15.85
73685;BMP280;61985;51.070;14.064;2023-09-19T05:24:11;98072.06;;;15.83
73685;BMP280;61985;51.070;14.064;2023-09-19T05:26:37;98077.50;;;15.83
73685;BMP280;61985;51.070;14.064;2023-09-19T05:29:03;98079.75;;;15.84
73685;BMP280;61985;51.070;14.064;2023-09-19T05:31:31;98089.19;;;15.89
73685;BMP280;61985;51.070;14.064;2023-09-19T05:33:56;98092.66;;;15.89
73685;BMP280;61985;51.070;14.064;2023-09-19T05:36:23;98098.09;;;15.89
73685;BMP280;61985;51.070;14.064;2023-09-19T05:38:48;98100.06;;;15.89
73685;BMP280;61985;51.070;14.064;2023-09-19T05:41:15;98104.34;;;15.96
73685;BMP280;61985;51.070;14.064;2023-09-19T05:43:41;98094.88;;;15.91
73685;BMP280;61985;51.070;14.064;2023-09-19T05:46:07;98111.94;;;15.92
73685;BMP280;61985;51.070;14.064;2023-09-19T05:48:33;98103.53;;;15.89
73685;BMP280;61985;51.070;14.064;2023-09-19T05:50:58;98107.25;;;15.92
73685;BMP280;61985;51.070;14.064;2023-09-19T05:53:24;98099.19;;;15.98
73685;BMP280;61985;51.070;14.064;2023-09-19T05:55:49;98103.69;;;16.01
73685;BMP280;61985;51.070;14.064;2023-09-19T05:58:15;98099.22;;;16.03
73685;BMP280;61985;51.070;14.064;2023-09-19T06:00:42;98107.22;;;16.07
73685;BMP280;61985;51.070;14.064;2023-09-19T06:03:10;98107.22;;;16.07
73685;BMP280;61985;51.070;14.064;2023-09-19T06:05:37;98117.16;;;16.16
73685;BMP280;61985;51.070;14.064;2023-09-19T06:08:06;98121.94;;;16.21
73685;BMP280;61985;51.070;14.064;2023-09-19T06:10:33;98119.00;;;16.24
73685;BMP280;61985;51.070;14.064;2023-09-19T06:13:01;98131.41;;;16.31
73685;BMP280;61985;51.070;14.064;2023-09-19T06:15:29;98133.66;;;16.33
73685;BMP280;61985;51.070;14.064;2023-09-19T06:17:57;98135.91;;;16.34
73685;BMP280;61985;51.070;14.064;2023-09-19T06:20:25;98139.41;;;16.40
73685;BMP280;61985;51.070;14.064;2023-09-19T06:22:52;98133.31;;;16.45
73685;BMP280;61985;51.070;14.064;2023-09-19T06:25:18;98132.56;;;16.45
73685;BMP280;61985;51.070;14.064;2023-09-19T06:27:47;98141.75;;;16.47
73685;BMP280;61985;51.070;14.064;2023-09-19T06:30:13;98142.78;;;16.50
73685;BMP280;61985;51.070;14.064;2023-09-19T06:32:40;98129.69;;;16.54
73685;BMP280;61985;51.070;14.064;2023-09-19T06:35:09;98142.31;;;16.57
73685;BMP280;61985;51.070;14.064;2023-09-19T06:37:36;98143.81;;;16.58
73685;BMP280;61985;51.070;14.064;2023-09-19T06:40:14;98142.16;;;16.61
73685;BMP280;61985;51.070;14.064;2023-09-19T06:43:06;98143.91;;;16.64
73685;BMP280;61985;51.070;14.064;2023-09-19T06:45:31;98145.09;;;16.63
73685;BMP280;61985;51.070;14.064;2023-09-19T06:47:57;98153.53;;;16.65
73685;BMP280;61985;51.070;14.064;2023-09-19T06:50:25;98158.50;;;16.66
73685;BMP280;61985;51.070;14.064;2023-09-19T06:52:52;98161.03;;;16.70
73685;BMP280;61985;51.070;14.064;2023-09-19T06:55:19;98158.31;;;16.70
73685;BMP280;61985;51.070;14.064;2023-09-19T06:57:46;98174.34;;;16.68
73685;BMP280;61985;51.070;14.064;2023-09-19T07:00:12;98178.56;;;16.69
73685;BMP280;61985;51.070;14.064;2023-09-19T07:03:05;98170.94;;;16.73
73685;BMP280;61985;51.070;14.064;2023-09-19T07:05:34;98183.28;;;16.74
73685;BMP280;61985;51.070;14.064;2023-09-19T07:08:02;98187.06;;;16.77
73685;BMP280;61985;51.070;14.064;2023-09-19T07:10:28;98194.50;;;16.82
73685;BMP280;61985;51.070;14.064;2023-09-19T07:12:57;98189.84;;;16.88
73685;BMP280;61985;51.070;14.064;2023-09-19T07:15:23;98194.41;;;16.97
73685;BMP280;61985;51.070;14.064;2023-09-19T07:17:51;98196.22;;;17.05
73685;BMP280;61985;51.070;14.064;2023-09-19T07:20:17;98208.16;;;17.13
73685;BMP280;61985;51.070;14.064;2023-09-19T07:22:42;98210.19;;;17.19
73685;BMP280;61985;51.070;14.064;2023-09-19T07:25:08;98211.88;;;17.16
73685;BMP280;61985;51.070;14.064;2023-09-19T07:27:33;98220.34;;;17.18
73685;BMP280;61985;51.070;14.064;2023-09-19T07:29:59;98216.22;;;17.28
73685;BMP280;61985;51.070;14.064;2023-09-19T07:32:24;98221.22;;;17.35
73685;BMP280;61985;51.070;14.064;2023-09-19T07:34:49;98224.50;;;17.45
73685;BMP280;61985;51.070;14.064;2023-09-19T07:37:15;98233.19;;;17.49
73685;BMP280;61985;51.070;14.064;2023-09-19T07:39:41;98232.25;;;17.52
73685;BMP280;61985;51.070;14.064;2023-09-19T07:42:07;98243.19;;;17.58
73685;BMP280;61985;51.070;14.064;2023-09-19T07:44:34;98244.94;;;17.61
73685;BMP280;61985;51.070;14.064;2023-09-19T07:46:59;98245.25;;;17.69
73685;BMP280;61985;51.070;14.064;2023-09-19T07:49:28;98247.97;;;17.74
73685;BMP280;61985;51.070;14.064;2023-09-19T07:51:53;98250.81;;;17.86
73685;BMP280;61985;51.070;14.064;2023-09-19T07:54:20;98256.94;;;17.81
73685;BMP280;61985;51.070;14.064;2023-09-19T07:56:46;98255.25;;;17.83
73685;BMP280;61985;51.070;14.064;2023-09-19T07:59:12;98259.38;;;17.73
73685;BMP280;61985;51.070;14.064;2023-09-19T08:01:38;98262.91;;;17.85
73685;BMP280;61985;51.070;14.064;2023-09-19T08:04:05;98268.44;;;17.96
73685;BMP280;61985;51.070;14.064;2023-09-19T08:06:30;98272.97;;;18.05
73685;BMP280;61985;51.070;14.064;2023-09-19T08:08:56;98275.94;;;18.01
73685;BMP280;61985;51.070;14.064;2023-09-19T08:11:23;98268.72;;;17.98
73685;BMP280;61985;51.070;14.064;2023-09-19T08:13:49;98275.13;;;17.95
73685;BMP280;61985;51.070;14.064;2023-09-19T08:16:16;98266.97;;;17.95
73685;BMP280;61985;51.070;14.064;2023-09-19T08:18:48;98262.72;;;17.88
73685;BMP280;61985;51.070;14.064;2023-09-19T08:21:18;98269.31;;;17.76
73685;BMP280;61985;51.070;14.064;2023-09-19T08:23:44;98271.78;;;17.74
73685;BMP280;61985;51.070;14.064;2023-09-19T08:26:09;98254.69;;;17.73
73685;BMP280;61985;51.070;14.064;2023-09-19T08:28:35;98260.38;;;17.75
73685;BMP280;61985;51.070;14.064;2023-09-19T08:31:03;98276.31;;;17.83
73685;BMP280;61985;51.070;14.064;2023-09-19T08:33:31;98264.66;;;17.82
73685;BMP280;61985;51.070;14.064;2023-09-19T08:35:57;98274.84;;;17.87
73685;BMP280;61985;51.070;14.064;2023-09-19T08:38:23;98275.94;;;18.01
73685;BMP280;61985;51.070;14.064;2023-09-19T08:40:48;98274.22;;;18.04
73685;BMP280;61985;51.070;14.064;2023-09-19T08:43:14;98281.44;;;18.12
73685;BMP280;61985;51.070;14.064;2023-09-19T08:45:40;98281.44;;;18.12
73685;BMP280;61985;51.070;14.064;2023-09-19T08:50:31;98281.25;;;18.22
73685;BMP280;61985;51.070;14.064;2023-09-19T08:53:07;98291.63;;;18.17
73685;BMP280;61985;51.070;14.064;2023-09-19T08:55:36;98293.66;;;18.28
73685;BMP280;61985;51.070;14.064;2023-09-19T08:58:04;98293.00;;;18.45
73685;BMP280;61985;51.070;14.064;2023-09-19T09:00:32;98282.66;;;18.66
73685;BMP280;61985;51.070;14.064;2023-09-19T09:02:58;98288.16;;;18.77
73685;BMP280;61985;51.070;14.064;2023-09-19T09:05:24;98298.88;;;18.97
73685;BMP280;61985;51.070;14.064;2023-09-19T09:07:52;98296.41;;;18.94
73685;BMP280;61985;51.070;14.064;2023-09-19T09:10:20;98297.38;;;18.85
73685;BMP280;61985;51.070;14.064;2023-09-19T09:12:53;98311.75;;;18.80
73685;BMP280;61985;51.070;14.064;2023-09-19T09:15:22;98301.97;;;18.62
73685;BMP280;61985;51.070;14.064;2023-09-19T09:17:49;98307.94;;;18.60
73685;BMP280;61985;51.070;14.064;2023-09-19T09:20:16;98313.63;;;18.57
73685;BMP280;61985;51.070;14.064;2023-09-19T09:22:55;98314.34;;;18.46
73685;BMP280;61985;51.070;14.064;2023-09-19T09:28:19;98321.16;;;18.25
73685;BMP280;61985;51.070;14.064;2023-09-19T09:30:45;98316.28;;;18.40
73685;BMP280;61985;51.070;14.064;2023-09-19T09:33:12;98313.41;;;18.60
73685;BMP280;61985;51.070;14.064;2023-09-19T09:36:01;98313.72;;;18.79
73685;BMP280;61985;51.070;14.064;2023-09-19T09:38:49;98319.50;;;18.98
73685;BMP280;61985;51.070;14.064;2023-09-19T09:41:15;98312.81;;;19.11
73685;BMP280;61985;51.070;14.064;2023-09-19T09:43:53;98301.16;;;19.21
73685;BMP280;61985;51.070;14.064;2023-09-19T09:46:20;98302.91;;;19.30
73685;BMP280;61985;51.070;14.064;2023-09-19T09:51:37;98309.59;;;19.52
73685;BMP280;61985;51.070;14.064;2023-09-19T09:54:12;98303.66;;;19.48
73685;BMP280;61985;51.070;14.064;2023-09-19T09:56:58;98319.06;;;19.62
73685;BMP280;61985;51.070;14.064;2023-09-19T10:00:00;98320.53;;;19.69
73685;BMP280;61985;51.070;14.064;2023-09-19T10:02:38;98318.03;;;19.76
73685;BMP280;61985;51.070;14.064;2023-09-19T10:05:15;98311.59;;;19.68
73685;BMP280;61985;51.070;14.064;2023-09-19T10:07:52;98313.59;;;19.51
73685;BMP280;61985;51.070;14.064;2023-09-19T10:10:33;98323.00;;;19.50
73685;BMP280;61985;51.070;14.064;2023-09-19T10:13:06;98315.09;;;19.63
73685;BMP280;61985;51.070;14.064;2023-09-19T10:15:33;98327.72;;;19.55
73685;BMP280;61985;51.070;14.064;2023-09-19T10:18:04;98325.25;;;19.51
73685;BMP280;61985;51.070;14.064;2023-09-19T10:20:30;98318.31;;;19.56
73685;BMP280;61985;51.070;14.064;2023-09-19T10:22:56;98319.31;;;19.58
73685;BMP280;61985;51.070;14.064;2023-09-19T10:25:26;98321.28;;;19.47
73685;BMP280;61985;51.070;14.064;2023-09-19T10:28:00;98318.81;;;19.49
73685;BMP280;61985;51.070;14.064;2023-09-19T10:30:28;98317.31;;;19.48
73685;BMP280;61985;51.070;14.064;2023-09-19T10:33:03;98327.72;;;19.55
73685;BMP280;61985;51.070;14.064;2023-09-19T10:35:28;98320.78;;;19.59
73685;BMP280;61985;51.070;14.064;2023-09-19T10:37:57;98316.03;;;19.94
73685;BMP280;61985;51.070;14.064;2023-09-19T10:40:24;98325.69;;;20.06
73685;BMP280;61985;51.070;14.064;2023-09-19T10:43:03;98313.75;;;20.15
73685;BMP280;61985;51.070;14.064;2023-09-19T10:45:31;98317.94;;;20.33
73685;BMP280;61985;51.070;14.064;2023-09-19T10:47:58;98318.59;;;20.50
73685;BMP280;61985;51.070;14.064;2023-09-19T10:50:23;98325.84;;;20.42
73685;BMP280;61985;51.070;14.064;2023-09-19T10:52:50;98323.63;;;20.40
73685;BMP280;61985;51.070;14.064;2023-09-19T10:55:25;98323.41;;;20.33
73685;BMP280;61985;51.070;14.064;2023-09-19T10:57:53;98324.34;;;20.41
73685;BMP280;61985;51.070;14.064;2023-09-19T11:00:19;98327.31;;;20.54
73685;BMP280;61985;51.070;14.064;2023-09-19T11:05:34;98324.84;;;20.45
73685;BMP280;61985;51.070;14.064;2023-09-19T11:08:06;98319.16;;;20.37
73685;BMP280;61985;51.070;14.064;2023-09-19T11:10:45;98321.53;;;20.63
73685;BMP280;61985;51.070;14.064;2023-09-19T11:13:24;98319.03;;;21.07
73685;BMP280;61985;51.070;14.064;2023-09-19T11:26:50;98311.53;;;21.13
73685;BMP280;61985;51.070;14.064;2023-09-19T11:29:30;98326.53;;;21.36
73685;BMP280;61985;51.070;14.064;2023-09-19T11:31:57;98321.75;;;21.43
73685;BMP280;61985;51.070;14.064;2023-09-19T11:40:10;98313.09;;;21.88
73685;BMP280;61985;51.070;14.064;2023-09-19T11:48:12;98298.22;;;22.45
73685;BMP280;61985;51.070;14.064;2023-09-19T11:50:42;98303.09;;;22.34
73685;BMP280;61985;51.070;14.064;2023-09-19T11:53:10;98311.84;;;22.32
73685;BMP280;61985;51.070;14.064;2023-09-19T11:55:38;98309.19;;;22.45
73685;BMP280;61985;51.070;14.064;2023-09-19T11:58:04;98310.06;;;22.54
73685;BMP280;61985;51.070;14.064;2023-09-19T12:00:30;98310.28;;;22.37
73685;BMP280;61985;51.070;14.064;2023-09-19T12:03:02;98308.44;;;22.64
73685;BMP280;61985;51.070;14.064;2023-09-19T12:05:31;98312.94;;;22.99
73685;BMP280;61985;51.070;14.064;2023-09-19T12:07:59;98314.03;;;22.91
73685;BMP280;61985;51.070;14.064;2023-09-19T12:10:24;98311.91;;;22.83
73685;BMP280;61985;51.070;14.064;2023-09-19T12:12:50;98311.66;;;23.00
73685;BMP280;61985;51.070;14.064;2023-09-19T12:15:23;98300.53;;;22.93
73685;BMP280;61985;51.070;14.064;2023-09-19T12:17:54;98310.09;;;23.05
73685;BMP280;61985;51.070;14.064;2023-09-19T12:20:19;98310.38;;;23.33
73685;BMP280;61985;51.070;14.064;2023-09-19T12:22:46;98303.50;;;23.40
73685;BMP280;61985;51.070;14.064;2023-09-19T12:25:15;98306.50;;;23.42
73685;BMP280;61985;51.070;14.064;2023-09-19T12:27:47;98304.03;;;23.39
73685;BMP280;61985;51.070;14.064;2023-09-19T12:30:13;98314.81;;;23.37
73685;BMP280;61985;51.070;14.064;2023-09-19T12:32:40;98301.53;;;23.67
73685;BMP280;61985;51.070;14.064;2023-09-19T12:35:06;98307.69;;;23.47
73685;BMP280;61985;51.070;14.064;2023-09-19T12:37:45;98304.41;;;23.62
73685;BMP280;61985;51.070;14.064;2023-09-19T12:40:21;98296.78;;;23.68
73685;BMP280;61985;51.070;14.064;2023-09-19T12:42:54;98297.69;;;23.44
73685;BMP280;61985;51.070;14.064;2023-09-19T12:45:23;98291.25;;;23.41
73685;BMP280;61985;51.070;14.064;2023-09-19T12:48:17;98293.69;;;23.45
73685;BMP280;61985;51.070;14.064;2023-09-19T12:51:01;98296.91;;;23.62
73685;BMP280;61985;51.070;14.064;2023-09-19T12:53:37;98299.53;;;23.54
73685;BMP280;61985;51.070;14.064;2023-09-19T12:56:10;98299.53;;;23.54
73685;BMP280;61985;51.070;14.064;2023-09-19T13:01:15;98294.13;;;23.75
73685;BMP280;61985;51.070;14.064;2023-09-19T13:03:41;98297.63;;;23.63
73685;BMP280;61985;51.070;14.064;2023-09-19T13:06:07;98288.50;;;23.41
73685;BMP280;61985;51.070;14.064;2023-09-19T13:08:36;98300.47;;;23.57
73685;BMP280;61985;51.070;14.064;2023-09-19T13:11:13;98300.16;;;23.87
73685;BMP280;61985;51.070;14.064;2023-09-19T13:13:40;98300.69;;;23.86
73685;BMP280;61985;51.070;14.064;2023-09-19T13:16:06;98303.09;;;23.49
73685;BMP280;61985;51.070;14.064;2023-09-19T13:18:53;98298.91;;;23.75
73685;BMP280;61985;51.070;14.064;2023-09-19T13:21:31;98307.94;;;23.30
73685;BMP280;61985;51.070;14.064;2023-09-19T13:24:19;98305.13;;;23.49
73685;BMP280;61985;51.070;14.064;2023-09-19T13:26:44;98307.00;;;23.41
73685;BMP280;61985;51.070;14.064;2023-09-19T13:29:11;98300.13;;;23.47
73685;BMP280;61985;51.070;14.064;2023-09-19T13:31:36;98302.47;;;23.70
73685;BMP280;61985;51.070;14.064;2023-09-19T13:34:06;98305.31;;;23.38
73685;BMP280;61985;51.070;14.064;2023-09-19T13:36:32;98300.63;;;23.32
73685;BMP280;61985;51.070;14.064;2023-09-19T13:38:57;98306.00;;;23.25
73685;BMP280;61985;51.070;14.064;2023-09-19T13:41:24;98303.81;;;23.37
73685;BMP280;61985;51.070;14.064;2023-09-19T13:43:50;98303.94;;;23.44
73685;BMP280;61985;51.070;14.064;2023-09-19T13:46:15;98300.25;;;23.42
73685;BMP280;61985;51.070;14.064;2023-09-19T13:48:42;98302.19;;;23.47
73685;BMP280;61985;51.070;14.064;2023-09-19T13:51:07;98296.91;;;23.62
73685;BMP280;61985;51.070;14.064;2023-09-19T13:53:32;98301.94;;;23.85
73685;BMP280;61985;51.070;14.064;2023-09-19T13:55:58;98312.66;;;23.88
73685;BMP280;61985;51.070;14.064;2023-09-19T13:58:23;98299.97;;;24.33
73685;BMP280;61985;51.070;14.064;2023-09-19T14:00:49;98309.84;;;24.62
73685;BMP280;61985;51.070;14.064;2023-09-19T14:03:15;98311.75;;;24.68
73685;BMP280;61985;51.070;14.064;2023-09-19T14:05:40;98299.91;;;24.59
73685;BMP280;61985;51.070;14.064;2023-09-19T14:08:13;98311.47;;;24.58
73685;BMP280;61985;51.070;14.064;2023-09-19T14:10:41;98298.75;;;24.20
73685;BMP280;61985;51.070;14.064;2023-09-19T14:13:09;98303.50;;;24.20
73685;BMP280;61985;51.070;14.064;2023-09-19T14:15:36;98302.53;;;24.31
73685;BMP280;61985;51.070;14.064;2023-09-19T14:18:03;98296.78;;;23.81
73685;BMP280;61985;51.070;14.064;2023-09-19T14:20:29;98290.53;;;23.54
73685;BMP280;61985;51.070;14.064;2023-09-19T14:22:56;98296.66;;;23.87
73685;BMP280;61985;51.070;14.064;2023-09-19T14:25:23;98295.16;;;23.99
73685;BMP280;61985;51.070;14.064;2023-09-19T14:27:49;98298.38;;;24.37
73685;BMP280;61985;51.070;14.064;2023-09-19T14:30:15;98292.63;;;24.49
73685;BMP280;61985;51.070;14.064;2023-09-19T14:32:40;98302.41;;;24.71
73685;BMP280;61985;51.070;14.064;2023-09-19T14:35:07;98292.53;;;24.96
73685;BMP280;61985;51.070;14.064;2023-09-19T14:37:32;98292.47;;;24.54
73685;BMP280;61985;51.070;14.064;2023-09-19T14:39:58;98291.44;;;24.10
73685;BMP280;61985;51.070;14.064;2023-09-19T14:42:23;98297.06;;;24.04
73685;BMP280;61985;51.070;14.064;2023-09-19T14:44:49;98290.53;;;24.41
73685;BMP280;61985;51.070;14.064;2023-09-19T14:47:15;98285.13;;;24.49
73685;BMP280;61985;51.070;14.064;2023-09-19T14:49:41;98282.16;;;24.47
73685;BMP280;61985;51.070;14.064;2023-09-19T14:52:08;98282.78;;;24.40
73685;BMP280;61985;51.070;14.064;2023-09-19T14:54:33;98292.78;;;24.85
73685;BMP280;61985;51.070;14.064;2023-09-19T14:56:59;98289.25;;;25.26
73685;BMP280;61985;51.070;14.064;2023-09-19T14:59:33;98291.69;;;25.59